<?xml version="1.0" encoding="utf-8"?>
<gpx xmlns:xsi="http://www.w3.org/2001/XMLSchema-instance" xmlns:xsd="http://www.w3.org/2001/XMLSchema" version="1.1" creator="Shapelink.com" xmlns="http://www.topografix.com/GPX/1/1" xmlns:gpxtpx="http://www.garmin.com/xmlschemas/TrackPointExtension/v1">
  <metadata>
    <name>Övrigt 1.36 km, 2020-07-02</name>
    <desc></desc>
    <author><name>Marian Moron</name></author> 
    <time>2020-07-02T20:56:54Z</time>
  </metadata>
  <trk>
    <name>Övrigt 1.36 km, 2020-07-02</name>
    <trkseg>
      <trkpt lat="51.229432091497" lon="4.458287180102">
        <ele>10.8</ele>
        <time>2020-07-02T20:56:54Z</time>
      </trkpt>
      <trkpt lat="51.229152806589" lon="4.458329927792">
        <ele>14.8</ele>
        <time>2020-07-02T20:57:17Z</time>
      </trkpt>
      <trkpt lat="51.228712170106" lon="4.458459092871">
        <ele>17.2</ele>
        <time>2020-07-02T20:57:51Z</time>
      </trkpt>
      <trkpt lat="51.228607228718" lon="4.458452303532">
        <ele>15</ele>
        <time>2020-07-02T20:58:06Z</time>
      </trkpt>
      <trkpt lat="51.228537742767" lon="4.458366808152">
        <ele>14.8</ele>
        <time>2020-07-02T20:58:15Z</time>
      </trkpt>
      <trkpt lat="51.228490217394" lon="4.458078219335">
        <ele>14.4</ele>
        <time>2020-07-02T20:58:35Z</time>
      </trkpt>
      <trkpt lat="51.228464736418" lon="4.457966404789">
        <ele>14</ele>
        <time>2020-07-02T20:58:44Z</time>
      </trkpt>
      <trkpt lat="51.228427017868" lon="4.457321501403">
        <ele>6.4</ele>
        <time>2020-07-02T20:59:12Z</time>
      </trkpt>
      <trkpt lat="51.228796994934" lon="4.457116815405">
        <ele>0.8</ele>
        <time>2020-07-02T20:59:56Z</time>
      </trkpt>
      <trkpt lat="51.229018528551" lon="4.457011538741">
        <ele>0</ele>
        <time>2020-07-02T21:00:19Z</time>
      </trkpt>
      <trkpt lat="51.229170827674" lon="4.456992428009">
        <ele>0</ele>
        <time>2020-07-02T21:00:33Z</time>
      </trkpt>
      <trkpt lat="51.229362354089" lon="4.457032074396">
        <ele>1</ele>
        <time>2020-07-02T21:00:54Z</time>
      </trkpt>
      <trkpt lat="51.229496464489" lon="4.457051604223">
        <ele>4.8</ele>
        <time>2020-07-02T21:01:10Z</time>
      </trkpt>
      <trkpt lat="51.229612386166" lon="4.456978011141">
        <ele>6</ele>
        <time>2020-07-02T21:01:22Z</time>
      </trkpt>
      <trkpt lat="51.229858311112" lon="4.456778941016">
        <ele>10</ele>
        <time>2020-07-02T21:02:12Z</time>
      </trkpt>
      <trkpt lat="51.229821179295" lon="4.456784640708">
        <ele>12.6</ele>
        <time>2020-07-02T21:02:16Z</time>
      </trkpt>
      <trkpt lat="51.229695534614" lon="4.456848091691">
        <ele>16</ele>
        <time>2020-07-02T21:02:30Z</time>
      </trkpt>
      <trkpt lat="51.229916481498" lon="4.456702246631">
        <ele>12.4</ele>
        <time>2020-07-02T21:02:52Z</time>
      </trkpt>
      <trkpt lat="51.230334319213" lon="4.456569225878">
        <ele>7.4</ele>
        <time>2020-07-02T21:03:24Z</time>
      </trkpt>
      <trkpt lat="51.230502041032" lon="4.456494207873">
        <ele>7.6</ele>
        <time>2020-07-02T21:03:45Z</time>
      </trkpt>
      <trkpt lat="51.230738829707" lon="4.456343333673">
        <ele>5.2</ele>
        <time>2020-07-02T21:04:06Z</time>
      </trkpt>
      <trkpt lat="51.230816446101" lon="4.456389853218">
        <ele>14</ele>
        <time>2020-07-02T21:04:23Z</time>
      </trkpt>
      <trkpt lat="51.230979809332" lon="4.456071592475">
        <ele>4.4</ele>
        <time>2020-07-02T21:05:14Z</time>
      </trkpt>
      <trkpt lat="51.230712259084" lon="4.455697675916">
        <ele>0.6</ele>
        <time>2020-07-02T21:05:49Z</time>
      </trkpt>
      <trkpt lat="51.230627434256" lon="4.455626429766">
        <ele>1.6</ele>
        <time>2020-07-02T21:05:56Z</time>
      </trkpt>
      <trkpt lat="51.230525929447" lon="4.455587873026">
        <ele>0</ele>
        <time>2020-07-02T21:06:04Z</time>
      </trkpt>
      <trkpt lat="51.230453928926" lon="4.455567505009">
        <ele>0</ele>
        <time>2020-07-02T21:06:10Z</time>
      </trkpt>
      <trkpt lat="51.23007137901" lon="4.455197108848">
        <ele>0</ele>
        <time>2020-07-02T21:07:19Z</time>
      </trkpt>
      <trkpt lat="51.23002444037" lon="4.455192163527">
        <ele>1.4</ele>
        <time>2020-07-02T21:07:23Z</time>
      </trkpt>
      <trkpt lat="51.229920840086" lon="4.455113541305">
        <ele>7</ele>
        <time>2020-07-02T21:07:40Z</time>
      </trkpt>
      <trkpt lat="51.229737695571" lon="4.455153606787">
        <ele>2.8</ele>
        <time>2020-07-02T21:07:58Z</time>
      </trkpt>
      <trkpt lat="51.229331927792" lon="4.455014718704">
        <ele>0</ele>
        <time>2020-07-02T21:09:09Z</time>
      </trkpt>
      <trkpt lat="51.229282223125" lon="4.454968199159">
        <ele>0</ele>
        <time>2020-07-02T21:09:15Z</time>
      </trkpt>
      <trkpt lat="51.228828929973" lon="4.454893935525">
        <ele>0</ele>
        <time>2020-07-02T21:09:56Z</time>
      </trkpt>
      <trkpt lat="51.228667075484" lon="4.454736104348">
        <ele>7</ele>
        <time>2020-07-02T21:10:28Z</time>
      </trkpt>
      <trkpt lat="51.228454845776" lon="4.454740714393">
        <ele>5.2</ele>
        <time>2020-07-02T21:10:54Z</time>
      </trkpt>
      <trkpt lat="51.228015969492" lon="4.454867700178">
        <ele>0</ele>
        <time>2020-07-02T21:11:32Z</time>
      </trkpt>
      <trkpt lat="51.227952602328" lon="4.454789329413">
        <ele>0</ele>
        <time>2020-07-02T21:11:55Z</time>
      </trkpt>
      <trkpt lat="51.227863502731" lon="4.454844314677">
        <ele>0</ele>
        <time>2020-07-02T21:12:06Z</time>
      </trkpt>
      <trkpt lat="51.227845314008" lon="4.454891588593">
        <ele>0</ele>
        <time>2020-07-02T21:12:09Z</time>
      </trkpt>
      <trkpt lat="51.227808601286" lon="4.454945316572">
        <ele>0</ele>
        <time>2020-07-02T21:12:14Z</time>
      </trkpt>
      <trkpt lat="51.2277839585" lon="4.455331386886">
        <ele>0</ele>
        <time>2020-07-02T21:13:15Z</time>
      </trkpt>
      <trkpt lat="51.22801194618" lon="4.455945780156">
        <ele>0</ele>
        <time>2020-07-02T21:14:02Z</time>
      </trkpt>
      <trkpt lat="51.228235407634" lon="4.45654810349">
        <ele>5.8</ele>
        <time>2020-07-02T21:15:40Z</time>
      </trkpt>
      <trkpt lat="51.228261223886" lon="4.456645584987">
        <ele>7.2</ele>
        <time>2020-07-02T21:15:50Z</time>
      </trkpt>
      <trkpt lat="51.228457360346" lon="4.457177919456">
        <ele>2.4</ele>
        <time>2020-07-02T21:16:39Z</time>
      </trkpt>
      <trkpt lat="51.228474207965" lon="4.457729532295">
        <ele>0</ele>
        <time>2020-07-02T21:17:23Z</time>
      </trkpt>
      <trkpt lat="51.228484098607" lon="4.457873868613">
        <ele>0</ele>
        <time>2020-07-02T21:17:32Z</time>
      </trkpt>
      <trkpt lat="51.228601612845" lon="4.458167821846">
        <ele>0</ele>
        <time>2020-07-02T21:18:06Z</time>
      </trkpt>
      <trkpt lat="51.229068736132" lon="4.458106801614">
        <ele>11.4</ele>
        <time>2020-07-02T21:18:49Z</time>
      </trkpt>
      <trkpt lat="51.229198236487" lon="4.458068663969">
        <ele>13.2</ele>
        <time>2020-07-02T21:19:02Z</time>
      </trkpt>
      <trkpt lat="51.229533847763" lon="4.457972439757">
        <ele>5.8</ele>
        <time>2020-07-02T21:19:43Z</time>
      </trkpt>
      <trkpt lat="51.229629149966" lon="4.457903205263">
        <ele>4.2</ele>
        <time>2020-07-02T21:20:16Z</time>
      </trkpt>
    </trkseg>
  </trk>
</gpx>